KDLF/DLF METAR and TAF weather

Enter ICAO airport designator
Station Type Date Time Source
KDLF METAR 2021/03/06 03:56 UTC NOAA

KDLF 060356Z AUTO 01018G28KT 10SM CLR 17/05 A3018 RMK AO2 PK WND 36029/52 SLPNO T01720048 $


Station Type Date Time Source
KDLF Decoded METAR 2021/03/06 03:56 UTC NOAA

Laughlin, Laughlin Air Force Base Auxiliary Airfield, TX, United States (KDLF) 29-07-00N 100-28-00W 294M
Mar 05, 2021 - 10:56 PM EST / 2021.03.06 0356 UTC
Wind: from the N (010 degrees) at 21 MPH (18 KT) gusting to 32 MPH (28 KT):0
Visibility: 10 mile(s):0
Sky conditions: clear
Temperature: 63.0 F (17.2 C)
Dew Point: 40.6 F (4.8 C)
Relative Humidity: 43%
Pressure (altimeter): 30.18 in. Hg (1022 hPa)
ob: KDLF 060356Z AUTO 01018G28KT 10SM CLR 17/05 A3018 RMK AO2 PK WND 36029/52 SLPNO T01720048
cycle: 4

Station Type Date Time Source
KDLF TAF 2021/03/05 23:40 UTC NOAA

TAF
AMD KDLF 052335Z 0523/0701 34015G30KT 9999 SCT250 QNH2998INS
TEMPO 0523/0601 34020G35KT
BECMG 0602/0603 36012G18KT 9999 SKC QNH3013INS
BECMG 0605/0606 35009KT 9999 SKC QNH3020INS
BECMG 0611/0612 36008KT 9999 BKN020 QNH3030INS
BECMG 0616/0617 02012KT 9999 BKN030 QNH3024INS
BECMG 0621/0622 VRB06KT 9999 SCT040 QNH3019INS TX25/0523Z TN10/0611Z LAST NO
AMDS AFT 0523 NEXT 0719

Example: see airport list